BIRK/RKV METAR and TAF weather

Enter ICAO airport designator
Station Type Date Time Source
BIRK METAR 2021/09/28 05:00 UTC NOAA

BIRK 280500Z 20003KT 180V240 CAVOK 00/M03 Q0998


Station Type Date Time Source
BIRK Decoded METAR 2021/09/28 05:00 UTC NOAA

Reykjavik, Iceland (BIRK) 64-08N 021-54W 61M
Sep 28, 2021 - 01:00 AM EDT / 2021.09.28 0500 UTC
Wind: from the SSW (200 degrees) at 3 MPH (3 KT) (direction variable):0
Visibility: greater than 7 mile(s):0
Temperature: 32 F (0 C)
Dew Point: 26 F (-3 C)
Relative Humidity: 80%
Pressure (altimeter): 29.47 in. Hg (0998 hPa)
ob: BIRK 280500Z 20003KT 180V240 CAVOK 00/M03 Q0998
cycle: 5

Station Type Date Time Source
BIRK TAF 2021/09/28 06:39 UTC NOAA

TAF BIRK 280436Z 2806/2906 36013G23KT 9999 SCT020 BKN035 TX05/2903Z TN01/2806Z
BECMG 2811/2813 33023G38KT
TEMPO 2811/2906 34030G48KT 3000 SHRASN BKN018CB
BECMG 2900/2902 26020G35KT
BECMG 2904/2906 23015G25KT

Example: see airport list